createdAt,value
2019-04-04T00:02:08.959Z,55.12
2019-04-04T00:04:37.045Z,55.18
2019-04-04T00:07:05.067Z,55.07
2019-04-04T00:09:33.726Z,55.20
2019-04-04T00:12:01.810Z,55.02
2019-04-04T00:14:29.870Z,55.13
2019-04-04T00:16:57.939Z,55.10
2019-04-04T00:19:25.989Z,55.10
2019-04-04T00:21:54.002Z,54.95
2019-04-04T00:24:22.196Z,54.89
2019-04-04T00:26:50.262Z,54.96
2019-04-04T00:29:18.315Z,54.95
2019-04-04T00:31:49.359Z,54.97
2019-04-04T00:34:16.113Z,54.86
2019-04-04T00:36:44.138Z,54.97
2019-04-04T00:39:12.161Z,54.91
2019-04-04T00:41:40.248Z,54.85
2019-04-04T00:44:08.297Z,54.80
2019-04-04T00:46:36.350Z,54.83
2019-04-04T00:49:04.818Z,54.80
2019-04-04T00:51:33.437Z,54.84
2019-04-04T00:54:01.436Z,54.75
2019-04-04T00:56:29.484Z,54.87
2019-04-04T00:58:57.492Z,54.77
2019-04-04T01:01:26.819Z,54.76
2019-04-04T01:03:55.225Z,54.75
2019-04-04T01:06:23.228Z,54.79
2019-04-04T01:08:51.236Z,54.77
2019-04-04T01:11:20.334Z,54.76
2019-04-04T01:13:49.091Z,54.77
2019-04-04T01:16:17.092Z,54.73
2019-04-04T01:18:45.136Z,54.76
2019-04-04T01:21:13.155Z,54.75
2019-04-04T01:23:41.194Z,54.83
2019-04-04T01:26:09.228Z,54.76
2019-04-04T01:28:39.090Z,54.73
2019-04-04T01:31:07.007Z,54.67
2019-04-04T01:33:35.039Z,54.71
2019-04-04T01:36:03.039Z,54.63
2019-04-04T01:38:31.142Z,54.68
2019-04-04T01:40:59.156Z,54.58
2019-04-04T01:43:27.158Z,54.67
2019-04-04T01:45:55.203Z,54.57
2019-04-04T01:48:23.221Z,54.61
2019-04-04T01:50:53.467Z,54.48
2019-04-04T01:53:21.069Z,54.58
2019-04-04T01:55:49.089Z,54.64
2019-04-04T01:58:17.112Z,54.56
2019-04-04T02:00:46.007Z,54.51
2019-04-04T02:03:14.648Z,54.65
2019-04-04T02:05:42.661Z,54.62
2019-04-04T02:08:10.850Z,54.58
2019-04-04T02:10:38.899Z,54.47
2019-04-04T02:13:09.514Z,54.48
2019-04-04T02:15:36.680Z,54.48
2019-04-04T02:18:04.701Z,54.49
2019-04-04T02:20:32.732Z,54.45
2019-04-04T02:23:01.468Z,54.38
2019-04-04T02:25:29.938Z,54.39
2019-04-04T02:27:58.048Z,54.34
2019-04-04T02:30:26.239Z,54.25
2019-04-04T02:32:59.230Z,54.29
2019-04-04T02:35:24.048Z,54.39
2019-04-04T02:37:55.005Z,54.54
2019-04-04T02:40:21.806Z,54.61
2019-04-04T02:42:54.151Z,54.71
2019-04-04T02:45:19.791Z,54.68
2019-04-04T02:47:51.197Z,54.69
2019-04-04T02:50:17.639Z,54.74
2019-04-04T02:52:46.187Z,54.83
2019-04-04T02:55:14.854Z,54.76
2019-04-04T02:57:42.908Z,54.77
2019-04-04T03:00:10.930Z,54.72
2019-04-04T03:02:39.021Z,54.77
2019-04-04T03:05:07.029Z,54.70
2019-04-04T03:07:35.039Z,54.80
2019-04-04T03:10:03.159Z,54.79
2019-04-04T03:12:31.175Z,54.88
2019-04-04T03:14:59.181Z,55.05
2019-04-04T03:17:31.621Z,54.97
2019-04-04T03:19:56.968Z,54.76
2019-04-04T03:22:27.683Z,54.76
2019-04-04T03:24:54.768Z,54.92
2019-04-04T03:27:25.631Z,54.82
2019-04-04T03:29:52.568Z,54.75
2019-04-04T03:32:20.622Z,54.76
2019-04-04T03:34:50.645Z,54.70
2019-04-04T03:37:18.560Z,54.68
2019-04-04T03:39:46.617Z,54.68
2019-04-04T03:42:14.873Z,54.71
2019-04-04T03:44:42.940Z,54.70
2019-04-04T03:47:11.417Z,54.72
2019-04-04T03:49:39.495Z,54.67
2019-04-04T03:52:10.456Z,54.67
2019-04-04T03:54:37.272Z,54.76
2019-04-04T03:57:05.304Z,54.92
2019-04-04T03:59:33.343Z,54.85
2019-04-04T04:02:01.349Z,54.68
2019-04-04T04:04:29.353Z,54.79
2019-04-04T04:06:57.653Z,54.85
2019-04-04T04:09:26.545Z,54.81
2019-04-04T04:11:55.286Z,54.86
2019-04-04T04:14:23.309Z,54.96
2019-04-04T04:16:51.368Z,54.89
2019-04-04T04:19:19.391Z,54.78
2019-04-04T04:21:47.449Z,54.79
2019-04-04T04:24:15.440Z,54.80
2019-04-04T04:26:43.475Z,54.76
2019-04-04T04:29:11.529Z,54.84
2019-04-04T04:31:39.595Z,54.95
2019-04-04T04:34:07.602Z,54.78
2019-04-04T04:36:35.664Z,54.92
2019-04-04T04:39:04.834Z,54.99
2019-04-04T04:41:32.828Z,54.90
2019-04-04T04:44:02.800Z,54.93
2019-04-04T04:46:30.790Z,54.76
2019-04-04T04:49:02.767Z,54.77
2019-04-04T04:51:28.613Z,54.83
2019-04-04T04:53:57.001Z,54.82
2019-04-04T04:56:25.018Z,54.81
2019-04-04T04:58:55.412Z,54.80
2019-04-04T05:01:22.776Z,54.89
2019-04-04T05:03:50.959Z,54.87
2019-04-04T05:06:19.156Z,54.84
2019-04-04T05:08:47.208Z,54.94
2019-04-04T05:11:16.804Z,55.10
2019-04-04T05:13:44.976Z,55.00
2019-04-04T05:16:12.990Z,54.99
2019-04-04T05:18:41.008Z,54.94
2019-04-04T05:21:09.089Z,55.04
2019-04-04T05:23:37.101Z,55.15
2019-04-04T05:26:05.133Z,55.18
2019-04-04T05:28:33.212Z,55.13
2019-04-04T05:31:01.218Z,55.08
2019-04-04T05:33:31.588Z,55.02
2019-04-04T05:35:59.055Z,55.12
2019-04-04T05:38:27.027Z,55.73
2019-04-04T05:40:55.514Z,56.78
2019-04-04T05:43:24.204Z,56.85
2019-04-04T05:45:52.274Z,56.68
2019-04-04T05:48:20.289Z,56.82
2019-04-04T05:50:48.485Z,57.28
2019-04-04T05:53:16.474Z,56.69
2019-04-04T05:55:44.516Z,56.37
2019-04-04T05:58:12.625Z,56.23
2019-04-04T06:00:42.455Z,56.12
2019-04-04T06:03:10.629Z,54.99
2019-04-04T06:05:38.662Z,54.60
2019-04-04T06:08:08.151Z,54.64
2019-04-04T06:10:36.416Z,54.65
2019-04-04T06:13:04.669Z,54.77
2019-04-04T06:15:32.930Z,54.61
2019-04-04T06:18:01.013Z,55.58
2019-04-04T06:20:29.026Z,55.61
2019-04-04T06:22:57.029Z,55.41
2019-04-04T06:25:25.085Z,56.31
2019-04-04T06:27:53.145Z,56.15
2019-04-04T06:30:21.141Z,55.79
2019-04-04T06:32:49.144Z,55.64
2019-04-04T06:35:17.192Z,55.79
2019-04-04T06:37:46.227Z,55.79
2019-04-04T06:40:14.365Z,55.22
2019-04-04T06:42:45.158Z,55.14
2019-04-04T06:45:15.127Z,55.40
2019-04-04T06:47:42.285Z,54.92
2019-04-04T06:50:10.302Z,55.18
2019-04-04T06:52:38.614Z,55.01
2019-04-04T06:55:06.683Z,54.86
2019-04-04T06:57:36.556Z,55.02
2019-04-04T07:00:04.446Z,55.01
2019-04-04T07:02:32.483Z,54.96
2019-04-04T07:05:00.503Z,55.05
2019-04-04T07:07:28.511Z,54.70
2019-04-04T07:09:56.606Z,55.12
2019-04-04T07:12:28.446Z,55.62
2019-04-04T07:14:54.364Z,55.55
2019-04-04T07:17:22.416Z,55.57
2019-04-04T07:19:50.417Z,55.66
2019-04-04T07:22:20.512Z,55.34
2019-04-04T07:24:48.193Z,55.36
2019-04-04T07:27:16.875Z,55.38
2019-04-04T07:29:44.977Z,55.52
2019-04-04T07:32:13.004Z,55.31
2019-04-04T07:34:41.045Z,55.08
2019-04-04T07:37:09.124Z,55.24
2019-04-04T07:39:37.703Z,55.15
2019-04-04T07:42:05.738Z,54.97
2019-04-04T07:44:33.821Z,55.02
2019-04-04T07:47:02.355Z,55.06
2019-04-04T07:49:30.364Z,55.03
2019-04-04T07:52:00.171Z,55.02
2019-04-04T07:54:28.180Z,54.96
2019-04-04T07:56:56.228Z,54.94
2019-04-04T07:59:24.267Z,54.76
2019-04-04T08:01:52.342Z,54.86
2019-04-04T08:04:20.420Z,54.83
2019-04-04T08:06:48.442Z,54.83
2019-04-04T08:09:16.519Z,54.86
2019-04-04T08:11:44.606Z,54.73
2019-04-04T08:14:12.754Z,54.99
2019-04-04T08:16:40.816Z,54.77
2019-04-04T08:19:08.918Z,54.70
2019-04-04T08:21:36.976Z,54.73
2019-04-04T08:24:05.019Z,54.69
2019-04-04T08:26:33.466Z,54.53
2019-04-04T08:29:01.521Z,55.28
2019-04-04T08:31:29.867Z,55.40
2019-04-04T08:33:58.022Z,54.69
2019-04-04T08:36:27.259Z,54.68
2019-04-04T08:38:55.324Z,54.76
2019-04-04T08:41:23.719Z,54.73
2019-04-04T08:43:51.954Z,54.68
2019-04-04T08:46:20.366Z,54.43
2019-04-04T08:48:48.542Z,54.60
2019-04-04T08:51:16.636Z,54.67
2019-04-04T08:53:44.720Z,54.38
2019-04-04T08:56:12.859Z,54.44
2019-04-04T08:58:41.149Z,54.42
2019-04-04T09:01:09.504Z,54.40
2019-04-04T09:03:37.577Z,54.42
2019-04-04T09:06:05.894Z,54.33
2019-04-04T09:08:33.943Z,54.29
2019-04-04T09:11:02.121Z,54.17
2019-04-04T09:13:30.351Z,54.46
2019-04-04T09:16:01.414Z,54.26
2019-04-04T09:18:29.671Z,54.18
2019-04-04T09:20:57.786Z,54.30
2019-04-04T09:23:25.847Z,54.26
2019-04-04T09:26:04.949Z,54.15
2019-04-04T09:28:23.839Z,54.09
2019-04-04T09:30:52.030Z,53.99
2019-04-04T09:33:21.076Z,53.87
2019-04-04T09:35:49.240Z,54.05
2019-04-04T09:38:17.352Z,53.87
2019-04-04T09:40:45.426Z,53.80
2019-04-04T09:43:13.757Z,53.86
2019-04-04T09:45:41.839Z,53.88
2019-04-04T09:48:09.957Z,53.71
2019-04-04T09:50:44.766Z,53.74
2019-04-04T09:53:12.791Z,53.68
2019-04-04T09:55:40.860Z,53.56
2019-04-04T09:58:10.996Z,53.59
2019-04-04T10:00:39.056Z,53.63
2019-04-04T10:03:07.142Z,53.33
2019-04-04T10:05:35.258Z,53.91
2019-04-04T10:08:03.314Z,54.38
2019-04-04T10:10:31.353Z,57.27
2019-04-04T10:12:59.523Z,58.04
2019-04-04T10:15:27.956Z,58.72
2019-04-04T10:17:56.051Z,58.66
2019-04-04T10:20:24.272Z,58.90
2019-04-04T10:22:52.373Z,60.57
2019-04-04T10:25:20.436Z,66.98
2019-04-04T10:27:48.845Z,68.95
2019-04-04T10:30:17.290Z,68.97
2019-04-04T10:32:45.393Z,70.31
2019-04-04T10:35:13.669Z,70.63
2019-04-04T10:37:41.905Z,71.20
2019-04-04T10:40:10.101Z,71.65
2019-04-04T10:42:38.458Z,69.31
2019-04-04T10:45:06.570Z,71.88
2019-04-04T10:47:34.669Z,72.88
2019-04-04T10:50:02.918Z,73.34
2019-04-04T10:52:31.018Z,72.79
2019-04-04T10:55:01.513Z,72.43
2019-04-04T10:57:28.973Z,72.53
2019-04-04T10:59:57.113Z,72.74
2019-04-04T11:02:25.200Z,73.14
2019-04-04T11:04:53.295Z,73.46
2019-04-04T11:07:21.387Z,73.39
2019-04-04T11:09:49.449Z,73.76
2019-04-04T11:12:17.606Z,73.49
2019-04-04T11:14:50.812Z,73.25
2019-04-04T11:17:18.872Z,73.09
2019-04-04T11:19:46.919Z,73.17
2019-04-04T11:22:15.023Z,73.05
2019-04-04T11:24:43.055Z,73.34
2019-04-04T11:27:11.090Z,73.46
2019-04-04T11:29:39.159Z,73.80
2019-04-04T11:32:07.241Z,73.58
2019-04-04T11:34:35.385Z,73.24
2019-04-04T11:37:03.829Z,73.90
2019-04-04T11:39:31.964Z,74.52
2019-04-04T11:42:00.290Z,74.04
2019-04-04T11:44:30.728Z,74.45
2019-04-04T11:46:58.307Z,74.78
2019-04-04T11:49:26.416Z,75.04
2019-04-04T11:51:54.470Z,74.64
2019-04-04T11:54:22.601Z,74.07
2019-04-04T11:56:50.657Z,73.38
2019-04-04T11:59:18.676Z,73.81
2019-04-04T12:01:47.693Z,74.28
2019-04-04T12:04:15.852Z,74.84
2019-04-04T12:06:44.484Z,74.91
2019-04-04T12:09:12.731Z,74.74
2019-04-04T12:11:40.901Z,74.52
2019-04-04T12:14:09.128Z,75.62
2019-04-04T12:16:37.236Z,75.84
2019-04-04T12:19:05.563Z,76.02
2019-04-04T12:21:33.619Z,75.15
2019-04-04T12:24:01.707Z,74.54
2019-04-04T12:26:29.821Z,75.35
2019-04-04T12:28:57.910Z,75.35
2019-04-04T12:31:26.153Z,75.80
2019-04-04T12:33:55.371Z,76.48
2019-04-04T12:36:24.907Z,76.74
2019-04-04T12:38:53.189Z,77.06
2019-04-04T12:41:21.234Z,77.19
2019-04-04T12:43:49.305Z,77.13
2019-04-04T12:46:17.578Z,76.91
2019-04-04T12:48:46.799Z,76.80
2019-04-04T12:51:14.895Z,76.39
2019-04-04T12:53:42.994Z,76.58
2019-04-04T12:56:11.063Z,76.36
2019-04-04T12:58:39.118Z,76.08
2019-04-04T13:01:07.234Z,75.07
2019-04-04T13:03:35.254Z,75.06
2019-04-04T13:06:03.296Z,74.93
2019-04-04T13:08:31.382Z,75.31
2019-04-04T13:10:59.443Z,74.97
2019-04-04T13:13:27.520Z,75.26
2019-04-04T13:15:55.680Z,76.15
2019-04-04T13:18:23.804Z,76.12
2019-04-04T13:20:51.959Z,76.32
2019-04-04T13:23:20.177Z,75.83
2019-04-04T13:25:48.257Z,75.89
2019-04-04T13:28:19.310Z,75.80
2019-04-04T13:30:47.420Z,74.65
2019-04-04T13:33:15.456Z,75.18
2019-04-04T13:35:43.543Z,74.46
2019-04-04T13:38:11.721Z,74.30
2019-04-04T13:40:45.392Z,74.68
2019-04-04T13:43:09.968Z,72.50
2019-04-04T13:45:38.311Z,74.81
2019-04-04T13:48:06.361Z,73.46
2019-04-04T13:50:34.662Z,74.26
2019-04-04T13:53:02.834Z,74.43
2019-04-04T13:55:30.973Z,74.52
2019-04-04T13:57:59.332Z,73.65
2019-04-04T14:00:27.464Z,74.50
2019-04-04T14:02:55.572Z,73.72
2019-04-04T14:05:23.680Z,74.54
2019-04-04T14:07:51.815Z,73.83
2019-04-04T14:10:19.942Z,73.61
2019-04-04T14:12:48.137Z,74.59
2019-04-04T14:15:16.393Z,73.79
2019-04-04T14:17:44.443Z,73.96
2019-04-04T14:20:13.627Z,73.55
2019-04-04T14:22:41.694Z,74.84
2019-04-04T14:25:09.733Z,74.24
2019-04-04T14:27:38.200Z,74.45
2019-04-04T14:30:06.384Z,74.16
2019-04-04T14:32:34.562Z,74.39
2019-04-04T14:35:03.034Z,74.27
2019-04-04T14:37:31.311Z,74.37
2019-04-04T14:39:59.783Z,73.63
2019-04-04T14:42:28.030Z,72.99
2019-04-04T14:44:56.207Z,69.41
2019-04-04T14:47:24.348Z,68.68
2019-04-04T14:49:52.504Z,67.83
2019-04-04T14:52:20.765Z,67.09
2019-04-04T14:54:48.901Z,66.45
2019-04-04T14:57:16.962Z,66.76
2019-04-04T14:59:45.128Z,66.24
2019-04-04T15:02:13.191Z,65.80
2019-04-04T15:04:41.277Z,65.10
2019-04-04T15:07:09.403Z,65.22
2019-04-04T15:09:37.439Z,64.13
2019-04-04T15:12:05.560Z,65.03
2019-04-04T15:14:33.610Z,64.89
2019-04-04T15:17:01.628Z,66.07
2019-04-04T15:19:29.734Z,66.09
2019-04-04T15:21:57.789Z,65.73
2019-04-04T15:24:26.025Z,66.12
2019-04-04T15:26:54.094Z,64.93
2019-04-04T15:29:22.281Z,62.53
2019-04-04T15:31:50.713Z,61.79
2019-04-04T15:34:18.834Z,60.27
2019-04-04T15:36:47.027Z,59.73
2019-04-04T15:39:16.036Z,59.70
2019-04-04T15:41:44.202Z,58.67
2019-04-04T15:44:12.220Z,58.49
2019-04-04T15:46:40.293Z,58.07
2019-04-04T15:49:08.344Z,58.41
2019-04-04T15:51:36.474Z,57.53
2019-04-04T15:54:04.528Z,57.33
2019-04-04T15:56:32.560Z,57.34
2019-04-04T15:59:00.653Z,56.65
2019-04-04T16:01:28.704Z,56.80
2019-04-04T16:03:56.805Z,56.23
2019-04-04T16:06:24.982Z,57.74
2019-04-04T16:08:53.027Z,57.79
2019-04-04T16:11:21.120Z,58.07
2019-04-04T16:13:49.278Z,57.72
2019-04-04T16:16:17.307Z,57.53
2019-04-04T16:18:45.711Z,57.47
2019-04-04T16:21:13.836Z,57.50
2019-04-04T16:23:41.878Z,57.54
2019-04-04T16:26:10.079Z,57.56
2019-04-04T16:28:38.302Z,57.66
2019-04-04T16:31:06.501Z,56.90
2019-04-04T16:33:34.896Z,56.61
2019-04-04T16:36:05.337Z,55.25
2019-04-04T16:38:32.815Z,55.21
2019-04-04T16:41:00.973Z,55.00
2019-04-04T16:43:29.009Z,54.73
2019-04-04T16:45:57.043Z,54.44
2019-04-04T16:48:25.128Z,55.21
2019-04-04T16:50:53.268Z,55.15
2019-04-04T16:53:21.287Z,54.87
2019-04-04T16:55:49.325Z,55.80
2019-04-04T16:58:17.562Z,56.18
2019-04-04T17:00:45.838Z,56.34
2019-04-04T17:03:14.050Z,57.30
2019-04-04T17:05:42.158Z,57.40
2019-04-04T17:08:10.405Z,57.95
2019-04-04T17:10:38.517Z,58.12
2019-04-04T17:13:06.569Z,58.23
2019-04-04T17:15:34.596Z,58.33
2019-04-04T17:18:02.650Z,57.42
2019-04-04T17:20:30.713Z,56.66
2019-04-04T17:22:58.843Z,56.60
2019-04-04T17:25:26.879Z,56.73
2019-04-04T17:28:13.643Z,56.65
2019-04-04T17:30:41.780Z,56.58
2019-04-04T17:33:10.555Z,56.63
2019-04-04T17:35:38.757Z,56.69
2019-04-04T17:38:06.813Z,56.63
2019-04-04T17:40:35.105Z,56.96
2019-04-04T17:43:03.561Z,56.39
2019-04-04T17:45:32.328Z,56.84
2019-04-04T17:48:00.450Z,55.63
2019-04-04T17:50:28.858Z,54.95
2019-04-04T17:52:57.104Z,54.84
2019-04-04T17:55:25.354Z,55.39
2019-04-04T17:57:53.451Z,55.15
2019-04-04T18:00:22.865Z,55.52
2019-04-04T18:02:50.948Z,55.00
2019-04-04T18:05:19.007Z,55.16
2019-04-04T18:07:47.067Z,55.79
2019-04-04T18:10:15.105Z,55.78
2019-04-04T18:12:43.149Z,55.63
2019-04-04T18:15:11.407Z,55.21
2019-04-04T18:17:39.481Z,55.02
2019-04-04T18:20:07.533Z,54.80
2019-04-04T18:22:35.712Z,54.59
2019-04-04T18:25:03.762Z,54.47
2019-04-04T18:27:31.837Z,54.46
2019-04-04T18:29:59.915Z,55.20
2019-04-04T18:32:27.931Z,55.64
2019-04-04T18:34:55.980Z,55.60
2019-04-04T18:37:24.269Z,55.95
2019-04-04T18:39:52.428Z,56.05
2019-04-04T18:42:23.227Z,55.86
2019-04-04T18:44:51.288Z,55.97
2019-04-04T18:47:19.300Z,55.84
2019-04-04T18:49:47.376Z,55.87
2019-04-04T18:52:15.429Z,55.86
2019-04-04T18:54:43.487Z,55.99
2019-04-04T18:57:13.269Z,56.22
2019-04-04T18:59:41.467Z,56.13
2019-04-04T19:02:09.532Z,56.16
2019-04-04T19:04:37.617Z,56.28
2019-04-04T19:07:05.796Z,56.23
2019-04-04T19:09:34.091Z,56.42
2019-04-04T19:12:02.227Z,56.56
2019-04-04T19:14:30.389Z,56.14
2019-04-04T19:16:58.432Z,56.15
2019-04-04T19:19:26.453Z,56.18
2019-04-04T19:21:54.501Z,55.75
2019-04-04T19:24:22.529Z,55.47
2019-04-04T19:26:50.577Z,55.42
2019-04-04T19:29:18.665Z,56.31
2019-04-04T19:31:46.738Z,56.10
2019-04-04T19:34:14.907Z,56.16
2019-04-04T19:36:42.974Z,56.21
2019-04-04T19:39:18.668Z,56.53
2019-04-04T19:41:46.483Z,56.44
2019-04-04T19:44:14.728Z,56.77
2019-04-04T19:46:42.808Z,56.68
2019-04-04T19:49:11.213Z,57.14
2019-04-04T19:51:39.299Z,56.92
2019-04-04T19:54:07.336Z,57.20
2019-04-04T19:56:35.395Z,57.14
2019-04-04T19:59:03.522Z,57.15
2019-04-04T20:01:31.539Z,57.21
2019-04-04T20:03:59.616Z,57.11
2019-04-04T20:06:27.642Z,57.00
2019-04-04T20:08:55.851Z,57.29
2019-04-04T20:11:23.923Z,57.16
2019-04-04T20:13:52.120Z,57.34
2019-04-04T20:16:20.165Z,57.03
2019-04-04T20:18:48.239Z,57.18
2019-04-04T20:21:16.280Z,57.44
2019-04-04T20:23:44.418Z,57.22
2019-04-04T20:26:13.638Z,57.34
2019-04-04T20:28:44.548Z,57.57
2019-04-04T20:31:12.958Z,57.47
2019-04-04T20:33:44.044Z,57.23
2019-04-04T20:36:12.090Z,57.31
2019-04-04T20:38:40.178Z,57.23
2019-04-04T20:41:08.281Z,57.21
2019-04-04T20:43:43.252Z,57.36
2019-04-04T20:46:06.440Z,57.47
2019-04-04T20:48:34.558Z,57.34
2019-04-04T20:51:02.588Z,57.32
2019-04-04T20:53:30.697Z,57.05
2019-04-04T20:55:58.776Z,57.45
2019-04-04T20:58:26.834Z,57.34
2019-04-04T21:00:54.890Z,57.26
2019-04-04T21:03:22.948Z,57.24
2019-04-04T21:05:50.974Z,57.41
2019-04-04T21:08:19.012Z,57.41
2019-04-04T21:10:47.088Z,57.44
2019-04-04T21:13:15.106Z,57.39
2019-04-04T21:15:43.205Z,57.05
2019-04-04T21:18:13.877Z,56.50
2019-04-04T21:20:41.041Z,56.16
2019-04-04T21:23:09.078Z,56.31
2019-04-04T21:25:37.242Z,56.27
2019-04-04T21:28:05.251Z,56.54
2019-04-04T21:30:33.939Z,56.00
2019-04-04T21:33:02.744Z,55.79
2019-04-04T21:35:30.827Z,55.84
2019-04-04T21:37:59.082Z,56.15
2019-04-04T21:40:27.139Z,56.06
2019-04-04T21:42:55.911Z,56.15
2019-04-04T21:45:24.400Z,56.29
2019-04-04T21:47:52.465Z,56.68
2019-04-04T21:50:20.507Z,56.98
2019-04-04T21:52:48.681Z,57.34
2019-04-04T21:55:16.903Z,57.60
2019-04-04T21:57:44.962Z,57.54
2019-04-04T22:00:12.982Z,57.66
2019-04-04T22:02:41.118Z,57.56
2019-04-04T22:05:09.164Z,57.50
2019-04-04T22:07:37.390Z,57.45
2019-04-04T22:10:24.204Z,57.30
2019-04-04T22:12:52.264Z,57.40
2019-04-04T22:15:20.380Z,57.43
2019-04-04T22:17:48.575Z,57.30
2019-04-04T22:20:16.983Z,57.30
2019-04-04T22:22:45.019Z,57.21
2019-04-04T22:25:13.101Z,57.23
2019-04-04T22:27:41.124Z,57.50
2019-04-04T22:30:09.180Z,57.14
2019-04-04T22:32:37.548Z,57.07
2019-04-04T22:35:06.466Z,57.14
2019-04-04T22:37:34.606Z,57.30
2019-04-04T22:40:02.712Z,57.09
2019-04-04T22:42:30.736Z,56.98
2019-04-04T22:44:58.937Z,56.93
2019-04-04T22:47:27.012Z,56.92
2019-04-04T22:49:55.084Z,56.86
2019-04-04T22:52:23.127Z,56.81
2019-04-04T22:54:51.215Z,56.75
2019-04-04T22:57:19.270Z,56.76
2019-04-04T22:59:47.312Z,56.90
2019-04-04T23:02:15.431Z,57.01
2019-04-04T23:04:43.441Z,56.72
2019-04-04T23:07:11.457Z,56.70
2019-04-04T23:09:39.633Z,56.64
2019-04-04T23:12:07.785Z,56.66
2019-04-04T23:14:47.372Z,56.60
2019-04-04T23:17:05.595Z,56.56
2019-04-04T23:19:33.617Z,56.61
2019-04-04T23:22:01.666Z,56.58
2019-04-04T23:24:29.725Z,56.48
2019-04-04T23:26:58.638Z,56.27
2019-04-04T23:29:26.677Z,56.50
2019-04-04T23:31:54.761Z,56.44
2019-04-04T23:34:22.871Z,56.27
2019-04-04T23:36:50.908Z,56.19
2019-04-04T23:39:18.949Z,56.25
2019-04-04T23:41:47.017Z,56.01
2019-04-04T23:44:15.131Z,56.27
2019-04-04T23:46:43.164Z,56.24
2019-04-04T23:49:11.226Z,56.08
2019-04-04T23:51:39.243Z,56.18
2019-04-04T23:54:07.274Z,56.18
2019-04-04T23:56:35.346Z,56.03
2019-04-04T23:59:03.377Z,55.99
